createdAt,value
2023-03-01T00:00:08.195Z,99550.84
2023-03-01T00:05:15.930Z,99551.28
2023-03-01T00:10:21.562Z,99546.94
2023-03-01T00:15:25.733Z,99553.22
2023-03-01T00:20:29.691Z,99550.75
2023-03-01T00:25:35.346Z,99539.53
2023-03-01T00:30:39.289Z,99529.25
2023-03-01T00:35:43.429Z,99523.59
2023-03-01T00:40:48.913Z,99516.16
2023-03-01T00:45:52.823Z,99517.59
2023-03-01T00:50:57.046Z,99515.88
2023-03-01T00:56:03.231Z,99509.22
2023-03-01T01:01:18.368Z,99505.09
2023-03-01T01:06:25.123Z,99508.22
2023-03-01T01:11:31.635Z,99518.41
2023-03-01T01:16:36.121Z,99508.16
2023-03-01T01:21:40.239Z,99501.78
2023-03-01T01:26:45.936Z,99507.59
2023-03-01T01:31:50.416Z,99493.19
2023-03-01T01:36:55.801Z,99489.38
2023-03-01T01:42:01.997Z,99487.19
2023-03-01T01:47:08.191Z,99473.88
2023-03-01T01:52:16.191Z,99466.84
2023-03-01T01:57:24.019Z,99465.59
2023-03-01T02:02:28.416Z,99462.78
2023-03-01T02:07:32.970Z,99474.25
2023-03-01T02:12:40.602Z,99464.69
2023-03-01T02:17:44.785Z,99466.81
2023-03-01T02:22:49.402Z,99475.41
2023-03-01T02:28:00.784Z,99485.53
2023-03-01T02:33:06.604Z,99473.13
2023-03-01T02:38:11.223Z,99471.13
2023-03-01T02:43:15.560Z,99475.13
2023-03-01T02:48:21.737Z,99464.16
2023-03-01T02:53:30.913Z,99472.41
2023-03-01T02:58:41.566Z,99454.63
2023-03-01T03:03:47.182Z,99450.97
2023-03-01T03:08:52.018Z,99463.00
2023-03-01T03:13:57.142Z,99464.66
2023-03-01T03:19:06.224Z,99465.31
2023-03-01T03:24:10.570Z,99466.63
2023-03-01T03:29:15.211Z,99456.81
2023-03-01T03:34:20.699Z,99454.66
2023-03-01T03:39:24.996Z,99459.06
2023-03-01T03:44:29.272Z,99457.50
2023-03-01T03:49:35.665Z,99455.53
2023-03-01T03:54:39.778Z,99460.09
2023-03-01T03:59:43.721Z,99463.72
2023-03-01T04:04:50.756Z,99455.44
2023-03-01T04:09:55.023Z,99433.34
2023-03-01T04:14:59.135Z,99430.97
2023-03-01T04:20:08.255Z,99434.06
2023-03-01T04:25:15.043Z,99419.38
2023-03-01T04:30:19.174Z,99429.69
2023-03-01T04:35:24.625Z,99428.66
2023-03-01T04:40:28.945Z,99437.28
2023-03-01T04:45:35.753Z,99436.44
2023-03-01T04:50:41.379Z,99439.81
2023-03-01T04:55:45.661Z,99448.63
2023-03-01T05:00:49.949Z,99438.91
2023-03-01T05:05:55.571Z,99440.28
2023-03-01T05:11:00.034Z,99442.16
2023-03-01T05:16:05.364Z,99443.00
2023-03-01T05:21:13.072Z,99441.38
2023-03-01T05:26:33.927Z,99456.75
2023-03-01T05:31:39.136Z,99453.41
2023-03-01T05:36:44.581Z,99450.38
2023-03-01T05:41:48.459Z,99458.81
2023-03-01T05:46:53.229Z,99455.69
2023-03-01T05:51:58.952Z,99463.59
2023-03-01T05:57:02.827Z,99456.53
2023-03-01T06:02:07.118Z,99433.78
2023-03-01T06:07:12.364Z,99427.91
2023-03-01T06:12:16.620Z,99425.25
2023-03-01T06:17:20.694Z,99429.78
2023-03-01T06:22:26.434Z,99431.97
2023-03-01T06:27:30.366Z,99429.47
2023-03-01T06:32:34.670Z,99424.66
2023-03-01T06:37:40.724Z,99416.03
2023-03-01T06:42:46.255Z,99421.34
2023-03-01T06:47:50.978Z,99429.91
2023-03-01T06:52:59.121Z,99442.34
2023-03-01T06:58:03.877Z,99443.81
2023-03-01T07:03:08.160Z,99435.06
2023-03-01T07:08:14.113Z,99441.91
2023-03-01T07:13:18.875Z,99435.22
2023-03-01T07:18:23.299Z,99434.63
2023-03-01T07:23:28.770Z,99432.75
2023-03-01T07:28:37.073Z,99425.63
2023-03-01T07:33:41.254Z,99426.00
2023-03-01T07:38:46.953Z,99428.59
2023-03-01T07:43:51.222Z,99422.06
2023-03-01T07:48:55.160Z,99418.31
2023-03-01T07:54:00.924Z,99416.47
2023-03-01T07:59:05.171Z,99407.06
2023-03-01T08:04:09.726Z,99406.44
2023-03-01T08:09:15.393Z,99399.75
2023-03-01T08:14:19.733Z,99397.59
2023-03-01T08:19:25.227Z,99402.25
2023-03-01T08:24:31.181Z,99403.16
2023-03-01T08:29:35.815Z,99405.66
2023-03-01T08:34:40.489Z,99402.63
2023-03-01T08:39:47.139Z,99409.50
2023-03-01T08:44:51.361Z,99413.78
2023-03-01T08:49:55.425Z,99401.31
2023-03-01T08:55:02.633Z,99409.69
2023-03-01T09:00:10.134Z,99416.59
2023-03-01T09:05:14.252Z,99401.63
2023-03-01T09:10:20.131Z,99404.31
2023-03-01T09:15:24.296Z,99397.84
2023-03-01T09:20:28.369Z,99406.53
2023-03-01T09:25:33.943Z,99408.00
2023-03-01T09:30:38.079Z,99407.69
2023-03-01T09:35:47.182Z,99418.00
2023-03-01T09:40:52.747Z,99411.16
2023-03-01T09:45:59.389Z,99410.97
2023-03-01T09:51:09.510Z,99403.75
2023-03-01T09:56:21.984Z,99403.00
2023-03-01T10:01:37.450Z,99403.13
2023-03-01T10:06:46.720Z,99398.44
2023-03-01T10:11:54.979Z,99400.53
2023-03-01T10:17:03.715Z,99400.09
2023-03-01T10:22:15.177Z,99389.22
2023-03-01T10:27:24.409Z,99389.13
2023-03-01T10:32:28.805Z,99385.13
2023-03-01T10:37:32.725Z,99371.78
2023-03-01T10:42:40.734Z,99368.06
2023-03-01T10:47:45.050Z,99373.88
2023-03-01T10:52:59.529Z,99366.16
2023-03-01T10:58:20.136Z,99361.03
2023-03-01T11:03:26.181Z,99368.78
2023-03-01T11:08:43.964Z,99369.16
2023-03-01T11:14:00.743Z,99371.53
2023-03-01T11:19:20.685Z,99376.16
2023-03-01T11:24:28.560Z,99383.53
2023-03-01T11:29:47.748Z,99377.50
2023-03-01T11:34:56.753Z,99373.78
2023-03-01T11:40:06.866Z,99373.19
2023-03-01T11:45:14.258Z,99357.88
2023-03-01T11:50:28.434Z,99350.38
2023-03-01T11:55:42.882Z,99349.69
2023-03-01T12:01:10.553Z,99344.59
2023-03-01T12:06:49.149Z,99353.25
2023-03-01T12:12:11.832Z,99342.84
2023-03-01T12:17:28.060Z,99343.94
2023-03-01T12:22:33.828Z,99331.47
2023-03-01T12:27:59.081Z,99319.59
2023-03-01T12:33:13.616Z,99308.44
2023-03-01T12:38:35.292Z,99304.78
2023-03-01T12:43:50.178Z,99299.25
2023-03-01T12:49:04.622Z,99296.78
2023-03-01T12:54:16.709Z,99301.13
2023-03-01T12:59:25.077Z,99301.59
2023-03-01T13:04:41.532Z,99301.22
2023-03-01T13:09:52.980Z,99301.47
2023-03-01T13:14:56.898Z,99296.50
2023-03-01T13:20:02.500Z,99281.59
2023-03-01T13:25:16.917Z,99276.03
2023-03-01T13:30:43.811Z,99269.47
2023-03-01T13:35:49.491Z,99263.78
2023-03-01T13:41:01.045Z,99264.88
2023-03-01T13:46:12.171Z,99260.25
2023-03-01T13:51:17.671Z,99259.34
2023-03-01T13:56:23.735Z,99259.06
2023-03-01T14:01:30.933Z,99254.84
2023-03-01T14:06:37.303Z,99252.34
2023-03-01T14:12:06.510Z,99251.63
2023-03-01T14:17:45.636Z,99245.84
2023-03-01T14:22:54.803Z,99239.44
2023-03-01T14:28:05.477Z,99241.97
2023-03-01T14:33:21.951Z,99241.19
2023-03-01T14:38:32.855Z,99236.94
2023-03-01T14:43:38.393Z,99225.19
2023-03-01T14:48:42.647Z,99216.97
2023-03-01T14:53:51.210Z,99214.88
2023-03-01T14:58:59.965Z,99222.34
2023-03-01T15:04:04.452Z,99220.72
2023-03-01T15:09:16.013Z,99213.75
2023-03-01T15:14:47.369Z,99212.63
2023-03-01T15:19:56.057Z,99212.81
2023-03-01T15:25:01.868Z,99219.03
2023-03-01T15:30:07.164Z,99229.50
2023-03-01T15:35:41.579Z,99238.44
2023-03-01T15:40:52.605Z,99234.16
2023-03-01T15:45:58.906Z,99219.34
2023-03-01T15:51:03.511Z,99227.13
2023-03-01T15:56:09.419Z,99230.47
2023-03-01T16:01:17.190Z,99235.09
2023-03-01T16:06:21.304Z,99229.75
2023-03-01T16:11:26.821Z,99222.59
2023-03-01T16:16:33.454Z,99216.50
2023-03-01T16:21:38.345Z,99208.75
2023-03-01T16:26:44.272Z,99204.13
2023-03-01T16:31:49.099Z,99196.56
2023-03-01T16:36:53.475Z,99190.75
2023-03-01T16:42:01.966Z,99185.63
2023-03-01T16:47:06.063Z,99175.44
2023-03-01T16:52:10.317Z,99173.28
2023-03-01T16:57:16.215Z,99172.78
2023-03-01T17:02:21.026Z,99176.16
2023-03-01T17:07:25.194Z,99176.41
2023-03-01T17:12:30.687Z,99180.06
2023-03-01T17:17:35.943Z,99176.09
2023-03-01T17:22:40.296Z,99177.50
2023-03-01T17:27:45.962Z,99175.38
2023-03-01T17:32:50.870Z,99177.69
2023-03-01T17:37:54.881Z,99180.00
2023-03-01T17:43:00.500Z,99170.31
2023-03-01T17:48:04.870Z,99166.66
2023-03-01T17:53:10.023Z,99175.75
2023-03-01T17:58:16.105Z,99168.56
2023-03-01T18:03:21.989Z,99162.25
2023-03-01T18:08:26.288Z,99180.22
2023-03-01T18:13:31.753Z,99174.13
2023-03-01T18:18:35.852Z,99166.50
2023-03-01T18:23:40.068Z,99168.13
2023-03-01T18:28:47.471Z,99169.88
2023-03-01T18:33:54.742Z,99162.50
2023-03-01T18:38:58.767Z,99165.81
2023-03-01T18:44:05.745Z,99166.34
2023-03-01T18:49:10.366Z,99165.69
2023-03-01T18:54:14.412Z,99175.16
2023-03-01T18:59:19.677Z,99160.84
2023-03-01T19:04:23.542Z,99174.69
2023-03-01T19:09:29.562Z,99181.59
2023-03-01T19:14:35.071Z,99177.41
2023-03-01T19:19:40.279Z,99167.59
2023-03-01T19:24:44.251Z,99167.44
2023-03-01T19:29:49.901Z,99171.84
2023-03-01T19:34:53.834Z,99170.47
2023-03-01T19:39:57.879Z,99178.06
2023-03-01T19:45:03.352Z,99184.97
2023-03-01T19:50:08.362Z,99177.00
2023-03-01T19:55:12.461Z,99179.69
2023-03-01T20:00:18.995Z,99179.34
2023-03-01T20:05:23.044Z,99165.84
2023-03-01T20:10:29.652Z,99164.47
2023-03-01T20:15:35.199Z,99166.47
2023-03-01T20:20:39.587Z,99169.88
2023-03-01T20:25:43.770Z,99159.75
2023-03-01T20:30:49.530Z,99170.81
2023-03-01T20:35:55.126Z,99166.00
2023-03-01T20:41:00.547Z,99169.09
2023-03-01T20:46:07.243Z,99166.78
2023-03-01T20:51:12.556Z,99165.53
2023-03-01T20:56:17.880Z,99164.50
2023-03-01T21:01:40.219Z,99166.44
2023-03-01T21:06:44.363Z,99168.31
2023-03-01T21:11:50.595Z,99169.06
2023-03-01T21:16:56.009Z,99166.69
2023-03-01T21:22:00.098Z,99161.56
2023-03-01T21:27:06.801Z,99167.00
2023-03-01T21:32:13.146Z,99169.00
2023-03-01T21:37:19.602Z,99159.13
2023-03-01T21:42:23.520Z,99161.88
2023-03-01T21:47:29.017Z,99163.03
2023-03-01T21:52:33.089Z,99159.06
2023-03-01T21:57:43.604Z,99164.44
2023-03-01T22:02:49.144Z,99167.00
2023-03-01T22:07:53.063Z,99163.03
2023-03-01T22:12:57.945Z,99159.94
2023-03-01T22:18:03.413Z,99164.16
2023-03-01T22:23:08.380Z,99160.72
2023-03-01T22:28:12.485Z,99157.81
2023-03-01T22:33:18.032Z,99159.09
2023-03-01T22:38:22.095Z,99150.06
2023-03-01T22:43:26.266Z,99146.06
2023-03-01T22:48:31.669Z,99153.50
2023-03-01T22:53:35.796Z,99151.66
2023-03-01T22:58:40.089Z,99143.66
2023-03-01T23:03:45.558Z,99145.84
2023-03-01T23:08:51.003Z,99147.56
2023-03-01T23:13:55.550Z,99142.28
2023-03-01T23:19:00.828Z,99131.34
2023-03-01T23:24:05.174Z,99139.22
2023-03-01T23:29:09.974Z,99126.78
2023-03-01T23:34:15.823Z,99132.63
2023-03-01T23:39:20.290Z,99126.38
2023-03-01T23:44:24.438Z,99122.13
2023-03-01T23:49:30.454Z,99124.31
2023-03-01T23:54:34.526Z,99120.44
2023-03-01T23:59:38.634Z,99119.00
